createdAt,value
2023-05-12T00:02:23.456Z,52.95
2023-05-12T00:04:54.812Z,52.94
2023-05-12T00:07:25.871Z,53.01
2023-05-12T00:09:57.117Z,52.99
2023-05-12T00:12:28.529Z,53.14
2023-05-12T00:14:59.493Z,53.13
2023-05-12T00:17:30.543Z,53.16
2023-05-12T00:20:01.607Z,53.52
2023-05-12T00:22:34.261Z,53.69
2023-05-12T00:25:06.038Z,53.89
2023-05-12T00:27:37.014Z,54.32
2023-05-12T00:30:10.528Z,55.47
2023-05-12T00:32:41.592Z,55.44
2023-05-12T00:35:13.227Z,55.61
2023-05-12T00:37:44.290Z,56.88
2023-05-12T00:40:16.181Z,57.30
2023-05-12T00:42:47.303Z,57.52
2023-05-12T00:45:18.265Z,57.59
2023-05-12T00:47:50.664Z,57.80
2023-05-12T00:50:22.336Z,58.07
2023-05-12T00:52:53.847Z,57.98
2023-05-12T00:55:25.324Z,58.07
2023-05-12T00:57:56.619Z,58.27
2023-05-12T01:00:27.704Z,58.41
2023-05-12T01:02:59.609Z,58.63
2023-05-12T01:05:37.015Z,58.85
2023-05-12T01:08:09.495Z,59.18
2023-05-12T01:10:46.357Z,58.98
2023-05-12T01:13:17.476Z,58.71
2023-05-12T01:15:50.618Z,58.36
2023-05-12T01:18:23.047Z,57.69
2023-05-12T01:20:54.885Z,57.87
2023-05-12T01:23:35.812Z,57.66
2023-05-12T01:26:09.896Z,57.50
2023-05-12T01:28:42.402Z,57.10
2023-05-12T01:31:13.629Z,56.98
2023-05-12T01:33:45.410Z,56.84
2023-05-12T01:36:16.893Z,56.61
2023-05-12T01:38:47.933Z,57.10
2023-05-12T01:41:18.916Z,56.80
2023-05-12T01:43:50.077Z,56.35
2023-05-12T01:46:21.141Z,56.10
2023-05-12T01:48:52.119Z,55.79
2023-05-12T01:51:23.133Z,55.82
2023-05-12T01:53:54.129Z,56.04
2023-05-12T01:56:23.400Z,56.84
2023-05-12T01:58:54.282Z,56.78
2023-05-12T02:01:28.845Z,56.46
2023-05-12T02:04:00.630Z,56.04
2023-05-12T02:06:32.650Z,56.42
2023-05-12T02:09:03.995Z,56.48
2023-05-12T02:11:34.937Z,56.76
2023-05-12T02:14:06.675Z,56.80
2023-05-12T02:16:37.772Z,56.69
2023-05-12T02:19:09.766Z,56.48
2023-05-12T02:21:41.042Z,56.55
2023-05-12T02:24:14.212Z,56.84
2023-05-12T02:26:46.044Z,57.38
2023-05-12T02:29:17.050Z,57.93
2023-05-12T02:31:48.290Z,58.21
2023-05-12T02:34:19.263Z,58.01
2023-05-12T02:36:50.559Z,58.08
2023-05-12T02:39:21.990Z,58.66
2023-05-12T02:41:52.936Z,58.87
2023-05-12T02:44:24.004Z,58.94
2023-05-12T02:46:55.054Z,58.75
2023-05-12T02:49:26.048Z,58.79
2023-05-12T02:51:57.327Z,58.77
2023-05-12T02:54:28.378Z,58.46
2023-05-12T02:57:00.042Z,58.99
2023-05-12T02:59:31.195Z,59.41
2023-05-12T03:02:02.171Z,59.55
2023-05-12T03:04:33.666Z,59.75
2023-05-12T03:07:04.772Z,60.14
2023-05-12T03:09:35.686Z,60.43
2023-05-12T03:12:08.658Z,60.82
2023-05-12T03:14:39.640Z,61.03
2023-05-12T03:17:08.988Z,61.14
2023-05-12T03:19:40.170Z,61.30
2023-05-12T03:22:12.388Z,61.61
2023-05-12T03:24:43.637Z,61.79
2023-05-12T03:27:14.976Z,62.25
2023-05-12T03:29:46.252Z,62.40
2023-05-12T03:32:17.575Z,62.47
2023-05-12T03:34:48.643Z,62.53
2023-05-12T03:37:18.022Z,62.53
2023-05-12T03:39:47.553Z,62.92
2023-05-12T03:42:19.312Z,63.05
2023-05-12T03:44:50.304Z,63.09
2023-05-12T03:47:21.714Z,63.46
2023-05-12T03:49:52.877Z,63.43
2023-05-12T03:52:23.697Z,63.63
2023-05-12T03:54:55.208Z,64.20
2023-05-12T03:57:26.165Z,64.37
2023-05-12T03:59:57.920Z,64.35
2023-05-12T04:02:29.028Z,64.54
2023-05-12T04:05:00.405Z,64.52
2023-05-12T04:07:31.508Z,64.52
2023-05-12T04:10:02.918Z,64.78
2023-05-12T04:12:34.511Z,64.78
2023-05-12T04:15:06.526Z,65.38
2023-05-12T04:17:37.822Z,65.67
2023-05-12T04:20:10.779Z,65.77
2023-05-12T04:22:41.770Z,65.69
2023-05-12T04:25:11.502Z,65.92
2023-05-12T04:27:42.551Z,65.72
2023-05-12T04:30:14.492Z,65.75
2023-05-12T04:32:45.469Z,65.98
2023-05-12T04:35:16.746Z,66.27
2023-05-12T04:37:47.653Z,66.40
2023-05-12T04:40:19.241Z,65.91
2023-05-12T04:42:50.611Z,65.75
2023-05-12T04:45:22.102Z,66.14
2023-05-12T04:47:53.041Z,66.70
2023-05-12T04:50:24.368Z,66.66
2023-05-12T04:52:55.532Z,66.79
2023-05-12T04:55:27.116Z,66.02
2023-05-12T04:57:58.226Z,66.08
2023-05-12T05:00:29.558Z,65.94
2023-05-12T05:03:00.668Z,65.72
2023-05-12T05:05:32.041Z,65.78
2023-05-12T05:08:03.331Z,65.63
2023-05-12T05:10:34.309Z,65.84
2023-05-12T05:13:05.311Z,66.03
2023-05-12T05:15:36.303Z,65.94
2023-05-12T05:18:07.757Z,65.46
2023-05-12T05:20:40.964Z,65.10
2023-05-12T05:23:14.727Z,65.47
2023-05-12T05:25:45.933Z,65.10
2023-05-12T05:28:17.030Z,64.80
2023-05-12T05:30:48.142Z,64.77
2023-05-12T05:33:19.153Z,64.76
2023-05-12T05:35:50.930Z,64.35
2023-05-12T05:38:21.834Z,63.13
2023-05-12T05:40:54.554Z,61.54
2023-05-12T05:43:25.954Z,60.68
2023-05-12T05:45:58.280Z,61.95
2023-05-12T05:48:29.567Z,60.81
2023-05-12T05:51:00.582Z,60.94
2023-05-12T05:53:31.596Z,60.25
2023-05-12T05:56:02.595Z,59.07
2023-05-12T05:58:33.537Z,57.78
2023-05-12T06:01:05.227Z,57.25
2023-05-12T06:03:36.276Z,57.35
2023-05-12T06:06:08.488Z,56.24
2023-05-12T06:08:39.389Z,56.06
2023-05-12T06:11:10.461Z,55.70
2023-05-12T06:13:41.451Z,55.50
2023-05-12T06:16:12.563Z,55.71
2023-05-12T06:18:43.611Z,55.61
2023-05-12T06:21:14.558Z,55.60
2023-05-12T06:23:45.590Z,55.78
2023-05-12T06:26:17.125Z,55.47
2023-05-12T06:28:48.513Z,56.46
2023-05-12T06:31:19.629Z,57.06
2023-05-12T06:33:50.827Z,57.17
2023-05-12T06:36:22.743Z,57.44
2023-05-12T06:38:54.018Z,57.79
2023-05-12T06:41:25.400Z,56.96
2023-05-12T06:43:56.501Z,55.58
2023-05-12T06:46:27.622Z,53.33
2023-05-12T06:49:00.312Z,52.77
2023-05-12T06:51:31.496Z,52.46
2023-05-12T06:54:02.417Z,52.15
2023-05-12T06:56:33.463Z,50.78
2023-05-12T06:59:04.800Z,50.31
2023-05-12T07:01:36.031Z,49.80
2023-05-12T07:04:07.981Z,49.13
2023-05-12T07:06:38.957Z,48.54
2023-05-12T07:09:10.101Z,49.60
2023-05-12T07:11:41.320Z,50.08
2023-05-12T07:14:12.462Z,49.71
2023-05-12T07:16:43.650Z,49.51
2023-05-12T07:19:14.661Z,48.95
2023-05-12T07:21:46.060Z,48.82
2023-05-12T07:24:17.709Z,48.62
2023-05-12T07:26:48.900Z,48.57
2023-05-12T07:29:19.827Z,48.63
2023-05-12T07:31:50.936Z,48.26
2023-05-12T07:34:22.321Z,49.00
2023-05-12T07:36:53.488Z,48.56
2023-05-12T07:39:25.096Z,47.95
2023-05-12T07:41:56.308Z,47.88
2023-05-12T07:44:27.699Z,48.09
2023-05-12T07:46:58.796Z,48.61
2023-05-12T07:49:29.973Z,47.83
2023-05-12T07:52:01.153Z,47.37
2023-05-12T07:54:32.550Z,47.57
2023-05-12T07:57:03.550Z,48.39
2023-05-12T07:59:34.990Z,47.15
2023-05-12T08:02:06.644Z,46.57
2023-05-12T08:04:37.806Z,45.66
2023-05-12T08:07:08.973Z,45.48
2023-05-12T08:09:39.946Z,45.90
2023-05-12T08:12:11.465Z,45.10
2023-05-12T08:14:42.420Z,44.67
2023-05-12T08:17:13.609Z,44.61
2023-05-12T08:19:45.019Z,44.48
2023-05-12T08:22:16.427Z,44.95
2023-05-12T08:24:48.280Z,45.15
2023-05-12T08:27:19.321Z,45.30
2023-05-12T08:29:50.352Z,45.07
2023-05-12T08:32:21.454Z,44.41
2023-05-12T08:34:52.498Z,45.07
2023-05-12T08:37:23.695Z,44.71
2023-05-12T08:39:54.952Z,43.30
2023-05-12T08:42:43.583Z,42.72
2023-05-12T08:45:15.705Z,42.65
2023-05-12T08:47:47.410Z,41.78
2023-05-12T08:50:22.624Z,42.11
2023-05-12T08:52:54.425Z,42.85
2023-05-12T08:55:31.839Z,42.78
2023-05-12T08:58:06.735Z,42.87
2023-05-12T09:00:40.224Z,39.74
2023-05-12T09:03:13.967Z,40.89
2023-05-12T09:05:46.446Z,40.85
2023-05-12T09:08:18.228Z,41.58
2023-05-12T09:10:50.599Z,40.11
2023-05-12T09:13:25.212Z,39.30
2023-05-12T09:15:58.990Z,41.44
2023-05-12T09:18:44.014Z,38.89
2023-05-12T09:21:15.503Z,40.52
2023-05-12T09:23:57.222Z,39.72
2023-05-12T09:26:29.763Z,39.43
2023-05-12T09:29:08.889Z,39.64
2023-05-12T09:31:40.536Z,38.66
2023-05-12T09:34:12.266Z,38.25
2023-05-12T09:36:43.373Z,37.80
2023-05-12T09:39:14.609Z,37.81
2023-05-12T09:41:45.811Z,37.84
2023-05-12T09:44:18.244Z,38.02
2023-05-12T09:46:49.997Z,37.33
2023-05-12T09:49:26.033Z,37.27
2023-05-12T09:51:59.039Z,37.27
2023-05-12T09:54:32.152Z,38.36
2023-05-12T09:57:07.192Z,37.27
2023-05-12T09:59:40.997Z,37.65
2023-05-12T10:02:16.909Z,38.54
2023-05-12T10:04:51.543Z,38.62
2023-05-12T10:07:27.601Z,38.20
2023-05-12T10:10:01.047Z,35.99
2023-05-12T10:12:32.281Z,36.79
2023-05-12T10:15:03.953Z,36.67
2023-05-12T10:17:36.373Z,36.81
2023-05-12T10:20:09.994Z,36.01
2023-05-12T10:22:43.406Z,36.12
2023-05-12T10:25:15.148Z,36.89
2023-05-12T10:27:47.909Z,36.04
2023-05-12T10:30:19.604Z,35.50
2023-05-12T10:32:51.064Z,35.68
2023-05-12T10:35:32.522Z,36.18
2023-05-12T10:38:08.681Z,36.89
2023-05-12T10:40:50.584Z,36.07
2023-05-12T10:43:24.967Z,36.48
2023-05-12T10:46:16.918Z,36.56
2023-05-12T10:48:57.136Z,36.31
2023-05-12T10:51:29.901Z,33.63
2023-05-12T10:54:02.267Z,34.02
2023-05-12T10:56:45.473Z,33.80
2023-05-12T10:59:19.223Z,31.24
2023-05-12T11:02:06.616Z,33.50
2023-05-12T11:04:44.468Z,31.03
2023-05-12T11:07:18.765Z,32.22
2023-05-12T11:09:58.607Z,31.92
2023-05-12T11:12:33.762Z,31.42
2023-05-12T11:15:06.512Z,31.69
2023-05-12T11:17:41.692Z,32.28
2023-05-12T11:20:30.929Z,32.80
2023-05-12T11:23:04.308Z,33.68
2023-05-12T11:25:35.541Z,33.54
2023-05-12T11:28:12.151Z,34.71
2023-05-12T11:30:49.124Z,34.44
2023-05-12T11:33:23.257Z,34.38
2023-05-12T11:35:54.417Z,34.78
2023-05-12T11:38:27.455Z,34.59
2023-05-12T11:40:58.423Z,33.74
2023-05-12T11:43:31.114Z,33.39
2023-05-12T11:46:02.270Z,33.82
2023-05-12T11:48:59.453Z,34.80
2023-05-12T11:51:30.947Z,33.67
2023-05-12T11:54:01.965Z,34.19
2023-05-12T11:56:33.014Z,34.14
2023-05-12T11:59:04.611Z,34.14
2023-05-12T12:01:46.362Z,34.60
2023-05-12T12:04:18.110Z,34.24
2023-05-12T12:06:49.063Z,33.87
2023-05-12T12:09:20.116Z,33.65
2023-05-12T12:11:51.165Z,34.18
2023-05-12T12:14:22.567Z,34.05
2023-05-12T12:16:53.725Z,33.70
2023-05-12T12:19:24.941Z,33.12
2023-05-12T12:21:56.194Z,33.09
2023-05-12T12:24:27.587Z,33.52
2023-05-12T12:26:58.647Z,33.46
2023-05-12T12:29:30.239Z,34.58
2023-05-12T12:32:01.343Z,34.36
2023-05-12T12:34:32.943Z,34.46
2023-05-12T12:37:06.827Z,33.74
2023-05-12T12:39:38.138Z,34.23
2023-05-12T12:42:09.561Z,34.35
2023-05-12T12:44:40.490Z,33.90
2023-05-12T12:47:11.545Z,34.38
2023-05-12T12:49:42.549Z,34.92
2023-05-12T12:52:13.656Z,34.96
2023-05-12T12:54:44.650Z,34.33
2023-05-12T12:57:15.550Z,34.52
2023-05-12T12:59:46.673Z,35.11
2023-05-12T13:02:17.743Z,35.30
2023-05-12T13:04:48.756Z,34.28
2023-05-12T13:07:19.790Z,34.55
2023-05-12T13:09:50.844Z,34.63
2023-05-12T13:12:22.238Z,35.44
2023-05-12T13:14:53.324Z,35.97
2023-05-12T13:17:24.855Z,36.78
2023-05-12T13:19:56.138Z,36.99
2023-05-12T13:22:27.620Z,36.97
2023-05-12T13:24:59.017Z,37.69
2023-05-12T13:27:30.207Z,37.77
2023-05-12T13:30:01.394Z,37.71
2023-05-12T13:32:34.040Z,37.90
2023-05-12T13:35:05.406Z,37.76
2023-05-12T13:37:37.510Z,37.96
2023-05-12T13:40:10.733Z,38.15
2023-05-12T13:42:41.604Z,38.42
2023-05-12T13:45:14.042Z,39.02
2023-05-12T13:47:45.064Z,39.16
2023-05-12T13:50:16.367Z,38.79
2023-05-12T13:52:48.425Z,39.35
2023-05-12T13:55:21.701Z,39.70
2023-05-12T13:57:52.984Z,39.44
2023-05-12T14:00:27.225Z,40.21
2023-05-12T14:02:58.815Z,40.85
2023-05-12T14:05:29.840Z,41.42
2023-05-12T14:08:01.018Z,41.71
2023-05-12T14:10:35.393Z,42.57
2023-05-12T14:13:08.537Z,44.29
2023-05-12T14:15:48.520Z,45.56
2023-05-12T14:18:21.036Z,46.10
2023-05-12T14:20:52.521Z,46.98
2023-05-12T14:23:23.546Z,47.06
2023-05-12T14:25:55.593Z,47.31
2023-05-12T14:28:27.096Z,47.54
2023-05-12T14:30:58.189Z,47.68
2023-05-12T14:33:29.386Z,47.87
2023-05-12T14:36:07.135Z,47.86
2023-05-12T14:38:38.665Z,48.07
2023-05-12T14:41:09.948Z,48.49
2023-05-12T14:43:41.112Z,49.00
2023-05-12T14:46:12.139Z,49.58
2023-05-12T14:48:43.226Z,49.41
2023-05-12T14:51:14.245Z,48.78
2023-05-12T14:53:45.333Z,48.08
2023-05-12T14:56:16.303Z,47.42
2023-05-12T14:58:47.593Z,47.71
2023-05-12T15:01:18.566Z,47.68
2023-05-12T15:03:49.943Z,47.21
2023-05-12T15:06:20.863Z,46.11
2023-05-12T15:08:52.208Z,46.35
2023-05-12T15:11:23.182Z,45.72
2023-05-12T15:13:54.670Z,45.14
2023-05-12T15:16:28.218Z,44.74
2023-05-12T15:18:59.290Z,44.50
2023-05-12T15:21:30.917Z,44.41
2023-05-12T15:24:02.196Z,44.44
2023-05-12T15:26:34.725Z,43.64
2023-05-12T15:29:07.412Z,43.46
2023-05-12T15:31:38.727Z,42.86
2023-05-12T15:34:10.110Z,42.19
2023-05-12T15:36:41.269Z,41.52
2023-05-12T15:39:12.124Z,40.79
2023-05-12T15:41:43.137Z,40.73
2023-05-12T15:44:14.024Z,38.92
2023-05-12T15:46:45.209Z,39.66
2023-05-12T15:49:16.395Z,39.46
2023-05-12T15:51:47.309Z,39.56
2023-05-12T15:54:18.543Z,37.97
2023-05-12T15:56:50.721Z,35.96
2023-05-12T15:59:23.354Z,36.53
2023-05-12T16:01:55.427Z,35.77
2023-05-12T16:04:29.741Z,35.90
2023-05-12T16:07:01.070Z,35.56
2023-05-12T16:09:32.557Z,36.35
2023-05-12T16:12:03.802Z,36.56
2023-05-12T16:14:35.469Z,35.93
2023-05-12T16:17:07.978Z,36.54
2023-05-12T16:19:39.329Z,36.53
2023-05-12T16:22:11.635Z,36.62
2023-05-12T16:24:43.033Z,36.34
2023-05-12T16:27:15.314Z,37.30
2023-05-12T16:29:49.811Z,37.75
2023-05-12T16:32:23.470Z,38.34
2023-05-12T16:34:54.567Z,38.71
2023-05-12T16:37:26.680Z,39.06
2023-05-12T16:39:58.263Z,39.25
2023-05-12T16:42:29.405Z,39.85
2023-05-12T16:45:00.374Z,39.81
2023-05-12T16:47:34.880Z,39.87
2023-05-12T16:50:06.562Z,40.25
2023-05-12T16:52:47.970Z,40.07
2023-05-12T16:55:19.520Z,40.21
2023-05-12T16:57:51.116Z,40.88
2023-05-12T17:00:22.914Z,40.80
2023-05-12T17:02:54.167Z,40.93
2023-05-12T17:05:25.626Z,41.24
2023-05-12T17:07:56.712Z,42.12
2023-05-12T17:10:27.901Z,42.20
2023-05-12T17:12:59.082Z,41.57
2023-05-12T17:15:30.500Z,41.31
2023-05-12T17:18:01.687Z,41.79
2023-05-12T17:20:34.461Z,42.57
2023-05-12T17:23:05.786Z,42.71
2023-05-12T17:25:37.716Z,43.49
2023-05-12T17:28:08.866Z,42.80
2023-05-12T17:30:40.017Z,43.17
2023-05-12T17:33:11.429Z,43.42
2023-05-12T17:35:42.776Z,43.92
2023-05-12T17:38:13.993Z,44.41
2023-05-12T17:40:45.009Z,44.89
2023-05-12T17:43:16.143Z,45.16
2023-05-12T17:45:47.209Z,45.77
2023-05-12T17:48:18.746Z,46.66
2023-05-12T17:50:49.961Z,47.01
2023-05-12T17:53:21.606Z,47.14
2023-05-12T17:55:53.010Z,47.25
2023-05-12T17:58:24.768Z,47.26
2023-05-12T18:00:55.858Z,46.78
2023-05-12T18:03:27.077Z,47.47
2023-05-12T18:05:58.719Z,47.12
2023-05-12T18:08:29.869Z,47.09
2023-05-12T18:11:03.650Z,47.24
2023-05-12T18:13:35.122Z,47.67
2023-05-12T18:16:08.994Z,47.59
2023-05-12T18:18:48.845Z,47.70
2023-05-12T18:21:19.933Z,48.08
2023-05-12T18:23:50.940Z,48.62
2023-05-12T18:26:22.033Z,48.79
2023-05-12T18:28:53.100Z,49.00
2023-05-12T18:31:24.249Z,49.58
2023-05-12T18:33:56.237Z,50.18
2023-05-12T18:36:28.346Z,50.09
2023-05-12T18:38:59.569Z,50.17
2023-05-12T18:41:31.483Z,50.42
2023-05-12T18:44:02.472Z,50.79
2023-05-12T18:46:33.597Z,51.71
2023-05-12T18:49:04.641Z,52.15
2023-05-12T18:51:36.552Z,52.77
2023-05-12T18:54:07.792Z,53.47
2023-05-12T18:56:38.950Z,54.22
2023-05-12T18:59:09.948Z,54.88
2023-05-12T19:01:41.361Z,55.18
2023-05-12T19:04:12.733Z,55.38
2023-05-12T19:06:44.644Z,55.47
2023-05-12T19:09:15.841Z,55.69
2023-05-12T19:11:47.271Z,55.89
2023-05-12T19:14:18.372Z,56.13
2023-05-12T19:16:50.152Z,57.04
2023-05-12T19:19:22.073Z,58.06
2023-05-12T19:21:53.424Z,58.61
2023-05-12T19:24:27.133Z,58.75
2023-05-12T19:26:58.748Z,58.95
2023-05-12T19:29:29.908Z,59.06
2023-05-12T19:32:01.111Z,59.10
2023-05-12T19:34:32.662Z,59.56
2023-05-12T19:37:03.675Z,59.76
2023-05-12T19:39:35.337Z,60.30
2023-05-12T19:42:07.322Z,60.59
2023-05-12T19:44:38.332Z,61.11
2023-05-12T19:47:09.576Z,61.30
2023-05-12T19:49:41.146Z,61.55
2023-05-12T19:52:12.357Z,62.05
2023-05-12T19:54:43.497Z,61.68
2023-05-12T19:57:14.628Z,61.47
2023-05-12T19:59:45.868Z,61.53
2023-05-12T20:02:17.922Z,61.31
2023-05-12T20:04:49.340Z,61.31
2023-05-12T20:07:21.041Z,61.23
2023-05-12T20:09:52.008Z,61.21
2023-05-12T20:12:23.367Z,61.47
2023-05-12T20:14:54.587Z,61.71
2023-05-12T20:17:25.775Z,61.80
2023-05-12T20:19:57.147Z,61.84
2023-05-12T20:22:28.490Z,62.25
2023-05-12T20:25:04.263Z,62.55
2023-05-12T20:27:35.869Z,62.66
2023-05-12T20:30:08.812Z,62.79
2023-05-12T20:32:39.974Z,62.84
2023-05-12T20:35:12.037Z,62.52
2023-05-12T20:37:43.130Z,62.64
2023-05-12T20:40:15.624Z,62.77
2023-05-12T20:42:48.140Z,62.64
2023-05-12T20:45:19.891Z,62.56
2023-05-12T20:47:51.388Z,62.87
2023-05-12T20:50:23.788Z,62.92
2023-05-12T20:52:54.874Z,62.95
2023-05-12T20:55:27.082Z,63.04
2023-05-12T20:57:58.199Z,63.10
2023-05-12T21:00:29.172Z,62.96
2023-05-12T21:03:02.820Z,63.04
2023-05-12T21:05:34.137Z,63.06
2023-05-12T21:08:05.816Z,63.06
2023-05-12T21:10:39.357Z,63.13
2023-05-12T21:13:10.670Z,63.32
2023-05-12T21:15:41.683Z,63.33
2023-05-12T21:18:13.399Z,63.42
2023-05-12T21:20:44.501Z,63.54
2023-05-12T21:23:15.626Z,63.67
2023-05-12T21:25:46.657Z,63.72
2023-05-12T21:28:18.249Z,63.86
2023-05-12T21:30:49.253Z,63.95
2023-05-12T21:33:20.359Z,64.21
2023-05-12T21:35:51.415Z,64.32
2023-05-12T21:38:22.894Z,64.54
2023-05-12T21:40:55.001Z,64.74
2023-05-12T21:43:25.954Z,64.93
2023-05-12T21:45:56.904Z,65.27
2023-05-12T21:48:28.048Z,65.31
2023-05-12T21:51:03.558Z,65.42
2023-05-12T21:53:34.530Z,65.41
2023-05-12T21:56:06.334Z,65.67
2023-05-12T21:58:37.419Z,65.77
2023-05-12T22:01:08.726Z,65.88
2023-05-12T22:03:39.974Z,65.99
2023-05-12T22:06:12.043Z,66.00
2023-05-12T22:08:43.548Z,66.21
2023-05-12T22:11:15.035Z,66.48
2023-05-12T22:13:46.347Z,66.72
2023-05-12T22:16:18.576Z,66.96
2023-05-12T22:18:51.266Z,67.06
2023-05-12T22:21:22.515Z,67.21
2023-05-12T22:23:53.802Z,67.20
2023-05-12T22:26:25.116Z,67.48
2023-05-12T22:28:56.288Z,67.53
2023-05-12T22:31:27.493Z,67.71
2023-05-12T22:33:58.676Z,67.69
2023-05-12T22:36:29.602Z,67.97
2023-05-12T22:39:01.481Z,68.07
2023-05-12T22:41:33.163Z,68.17
2023-05-12T22:44:04.498Z,68.50
2023-05-12T22:46:35.934Z,68.77
2023-05-12T22:49:07.106Z,68.87
2023-05-12T22:51:38.332Z,68.97
2023-05-12T22:54:09.430Z,69.10
2023-05-12T22:56:40.418Z,69.55
2023-05-12T22:59:11.671Z,69.74
2023-05-12T23:01:42.787Z,69.98
2023-05-12T23:04:14.083Z,69.74
2023-05-12T23:06:43.574Z,70.48
2023-05-12T23:09:14.859Z,70.88
2023-05-12T23:11:46.680Z,70.80
2023-05-12T23:14:17.725Z,70.75
2023-05-12T23:16:48.058Z,70.94
2023-05-12T23:19:18.956Z,71.37
2023-05-12T23:21:50.003Z,71.46
2023-05-12T23:24:21.711Z,71.50
2023-05-12T23:26:52.897Z,71.72
2023-05-12T23:29:22.298Z,71.69
2023-05-12T23:31:53.861Z,72.01
2023-05-12T23:34:24.995Z,71.87
2023-05-12T23:36:56.281Z,71.99
2023-05-12T23:39:27.412Z,71.85
2023-05-12T23:41:58.653Z,71.98
2023-05-12T23:44:29.843Z,71.88
2023-05-12T23:47:01.168Z,72.09
2023-05-12T23:49:32.180Z,72.07
2023-05-12T23:52:01.560Z,72.02
2023-05-12T23:54:33.962Z,72.16
2023-05-12T23:57:03.877Z,72.03
2023-05-12T23:59:34.912Z,72.06
